Time;durP1;ratioP1;P1;durP2;ratioP2;P2;SDS_P1;SDS_P2;PMS_P1;PMS_P2;Temp;Humidity;BMP_temperature;BMP_pressure;BME280_temperature;BME280_humidity;BME280_pressure;Samples;Min_cycle;Max_cycle;Signal;HPM_P1;HPM_P2
2023/11/24 00:01:06;;;;;;;5.30;4.88;;;8.10;99.90;;;;;;5050303;28;20230;-62
2023/11/24 00:03:33;;;;;;;3.95;3.25;;;8.10;99.90;;;;;;5049947;28;20210;-62
2023/11/24 00:06:00;;;;;;;4.85;4.35;;;8.20;99.90;;;;;;5050563;28;20207;-63
2023/11/24 00:08:27;;;;;;;4.72;3.95;;;8.20;99.90;;;;;;5049837;28;20229;-62
2023/11/24 00:10:55;;;;;;;5.60;4.10;;;8.30;99.90;;;;;;5050344;28;20264;-62
2023/11/24 00:13:22;;;;;;;3.83;3.45;;;8.30;99.90;;;;;;5048666;28;20207;-62
2023/11/24 00:15:51;;;;;;;4.13;3.72;;;8.40;99.90;;;;;;5049677;28;20214;-61
2023/11/24 00:18:18;;;;;;;4.70;3.33;;;8.40;99.90;;;;;;5049634;28;20291;-62
2023/11/24 00:20:45;;;;;;;4.82;3.47;;;8.40;99.90;;;;;;5049923;28;20672;-62
2023/11/24 00:23:12;;;;;;;4.20;3.83;;;8.50;99.90;;;;;;5049744;28;20261;-62
2023/11/24 00:25:39;;;;;;;4.88;4.47;;;8.50;99.90;;;;;;5049858;28;20708;-62
2023/11/24 00:28:07;;;;;;;3.40;3.10;;;8.50;99.90;;;;;;5053156;28;20724;-62
2023/11/24 00:30:35;;;;;;;3.75;3.53;;;8.60;99.90;;;;;;5053583;28;20979;-62
2023/11/24 00:33:02;;;;;;;4.45;4.05;;;8.60;99.90;;;;;;5054337;28;20293;-61
2023/11/24 00:35:29;;;;;;;4.60;3.83;;;8.70;99.90;;;;;;5053502;28;20199;-62
2023/11/24 00:37:57;;;;;;;4.40;4.00;;;8.70;99.90;;;;;;5053144;28;21302;-62
2023/11/24 00:40:24;;;;;;;6.13;3.92;;;8.80;99.90;;;;;;5052766;28;20616;-62
2023/11/24 00:42:51;;;;;;;4.82;4.43;;;8.80;99.90;;;;;;5053000;28;20206;-61
2023/11/24 00:45:19;;;;;;;4.18;3.40;;;8.90;99.90;;;;;;5051259;28;20292;-62
2023/11/24 00:47:46;;;;;;;3.97;3.60;;;8.90;99.90;;;;;;5050981;28;20238;-62
2023/11/24 00:50:14;;;;;;;8.15;4.50;;;8.90;99.90;;;;;;5053313;28;20325;-62
2023/11/24 00:52:40;;;;;;;4.88;3.70;;;8.90;99.90;;;;;;5053527;28;20202;-62
2023/11/24 00:55:08;;;;;;;4.18;3.80;;;9.00;99.90;;;;;;5053586;28;20206;-62
2023/11/24 00:57:35;;;;;;;4.03;3.72;;;8.90;99.90;;;;;;5053240;28;20210;-62
2023/11/24 01:00:05;;;;;;;5.30;3.83;;;8.90;99.90;;;;;;5052926;28;20742;-62
2023/11/24 01:02:36;;;;;;;5.65;4.15;;;9.00;99.90;;;;;;5053120;28;20285;-62
2023/11/24 01:05:04;;;;;;;4.40;4.00;;;9.00;99.90;;;;;;5053265;28;20206;-62
2023/11/24 01:07:31;;;;;;;4.80;3.22;;;9.10;99.90;;;;;;5051878;28;20289;-62
2023/11/24 01:09:58;;;;;;;3.60;3.20;;;9.00;99.90;;;;;;5052436;28;20257;-62
2023/11/24 01:12:24;;;;;;;3.25;2.95;;;9.10;99.90;;;;;;5051969;28;20206;-61
2023/11/24 01:14:51;;;;;;;3.53;3.23;;;9.10;99.90;;;;;;5051648;28;20213;-62
2023/11/24 01:17:18;;;;;;;3.25;3.05;;;9.10;99.90;;;;;;5050989;28;20448;-61
2023/11/24 01:19:47;;;;;;;3.70;3.50;;;9.10;99.90;;;;;;5052406;28;20223;-61
2023/11/24 01:22:13;;;;;;;2.85;2.65;;;9.10;99.90;;;;;;5052817;28;20300;-61
2023/11/24 01:24:41;;;;;;;5.60;3.05;;;9.10;99.90;;;;;;5052966;28;20206;-62
2023/11/24 01:27:07;;;;;;;2.93;2.73;;;9.20;99.90;;;;;;5052800;28;20214;-62
2023/11/24 01:29:34;;;;;;;4.00;3.67;;;9.20;99.90;;;;;;5053156;28;20493;-61
2023/11/24 01:32:01;;;;;;;2.75;2.55;;;9.20;99.90;;;;;;5053211;28;20532;-62
2023/11/24 01:34:28;;;;;;;5.30;2.70;;;9.20;99.90;;;;;;5052838;28;20202;-62
2023/11/24 01:36:56;;;;;;;2.83;2.53;;;9.20;99.90;;;;;;5052700;28;20449;-60
2023/11/24 01:39:23;;;;;;;2.92;2.72;;;9.20;99.90;;;;;;5052459;28;20447;-60
2023/11/24 01:41:50;;;;;;;2.65;2.45;;;9.30;99.90;;;;;;5052097;28;20655;-62
2023/11/24 01:44:18;;;;;;;2.43;2.33;;;9.30;99.90;;;;;;5053136;28;20210;-60
2023/11/24 01:46:45;;;;;;;1.90;1.80;;;9.40;99.90;;;;;;5052783;28;20448;-62
2023/11/24 01:49:12;;;;;;;2.30;2.03;;;9.40;99.90;;;;;;5052585;28;20229;-62
2023/11/24 01:51:39;;;;;;;3.13;2.15;;;9.40;99.90;;;;;;5052699;28;20870;-61
2023/11/24 01:54:08;;;;;;;2.80;1.70;;;9.40;99.90;;;;;;5052569;28;20291;-62
2023/11/24 01:56:35;;;;;;;3.53;1.98;;;9.40;99.90;;;;;;5052121;28;20453;-61
2023/11/24 01:59:03;;;;;;;3.80;2.30;;;9.50;99.90;;;;;;5052483;28;20333;-62
2023/11/24 02:01:31;;;;;;;2.00;1.90;;;9.40;99.90;;;;;;5052001;28;20573;-62
2023/11/24 02:03:58;;;;;;;2.53;2.10;;;9.40;99.90;;;;;;5052416;28;20528;-61
2023/11/24 02:06:25;;;;;;;2.17;2.07;;;9.40;99.90;;;;;;5052118;28;20459;-59
2023/11/24 02:08:52;;;;;;;2.13;1.93;;;9.40;99.90;;;;;;5053007;28;20484;-61
2023/11/24 02:11:20;;;;;;;1.63;1.63;;;9.40;99.90;;;;;;5052269;28;20476;-60
2023/11/24 02:13:49;;;;;;;1.90;1.70;;;9.40;99.90;;;;;;5052448;28;20475;-61
2023/11/24 02:16:16;;;;;;;1.90;1.75;;;9.40;99.90;;;;;;5052467;28;20886;-61
2023/11/24 02:18:43;;;;;;;1.53;1.43;;;9.40;99.90;;;;;;5052527;28;20230;-61
2023/11/24 02:21:10;;;;;;;3.17;2.67;;;9.50;99.90;;;;;;5051630;28;20467;-61
2023/11/24 02:23:39;;;;;;;2.42;2.10;;;9.50;99.90;;;;;;5051455;28;21502;-61
2023/11/24 02:26:06;;;;;;;1.55;1.45;;;9.40;99.90;;;;;;5051886;28;20206;-62
2023/11/24 02:28:33;;;;;;;4.40;2.05;;;9.40;99.90;;;;;;5051735;28;20233;-62
2023/11/24 02:31:03;;;;;;;2.40;2.30;;;9.40;99.90;;;;;;5051503;28;20224;-62
2023/11/24 02:33:30;;;;;;;2.30;2.00;;;9.40;99.90;;;;;;5051786;28;20206;-62
2023/11/24 02:36:05;;;;;;;1.63;1.52;;;9.40;99.90;;;;;;5051633;28;20535;-62
2023/11/24 02:38:31;;;;;;;5.63;2.53;;;9.40;99.90;;;;;;5051598;28;20232;-61
2023/11/24 02:41:00;;;;;;;3.00;2.80;;;9.40;99.90;;;;;;5051488;28;20475;-62
2023/11/24 02:43:27;;;;;;;2.13;1.65;;;9.40;99.90;;;;;;5051539;28;20709;-61
2023/11/24 02:45:54;;;;;;;2.33;1.00;;;9.30;99.90;;;;;;5051298;28;20209;-61
2023/11/24 02:48:21;;;;;;;0.90;0.90;;;9.30;99.90;;;;;;5051226;28;20211;-62
2023/11/24 02:50:48;;;;;;;1.05;0.50;;;9.20;99.90;;;;;;5050524;28;20233;-62
2023/11/24 02:53:15;;;;;;;1.00;0.75;;;9.10;99.90;;;;;;5051442;28;20297;-62
2023/11/24 02:55:43;;;;;;;0.30;0.30;;;9.00;99.90;;;;;;5051383;28;20210;-61
2023/11/24 02:58:11;;;;;;;0.85;0.63;;;8.80;99.90;;;;;;5051181;28;20210;-62
2023/11/24 03:00:38;;;;;;;0.35;0.35;;;8.70;99.90;;;;;;5051267;28;20313;-62
2023/11/24 03:03:05;;;;;;;0.90;0.90;;;8.60;99.90;;;;;;5051171;28;20206;-62
2023/11/24 03:05:32;;;;;;;1.77;0.60;;;8.50;99.90;;;;;;5051173;28;20217;-62
2023/11/24 03:07:59;;;;;;;2.20;0.90;;;8.50;99.90;;;;;;5051053;28;20241;-62
2023/11/24 03:10:26;;;;;;;1.30;1.17;;;8.40;99.90;;;;;;5050896;28;20251;-61
2023/11/24 03:12:53;;;;;;;1.00;1.00;;;8.40;99.90;;;;;;5051091;28;20213;-62
2023/11/24 03:15:22;;;;;;;2.17;0.93;;;8.30;99.90;;;;;;5051351;28;20296;-59
2023/11/24 03:17:49;;;;;;;1.95;0.90;;;8.20;99.90;;;;;;5050763;28;20213;-61
2023/11/24 03:20:16;;;;;;;1.77;1.67;;;8.20;99.90;;;;;;5051139;28;20218;-61
2023/11/24 03:22:43;;;;;;;1.52;1.05;;;8.10;99.90;;;;;;5050981;28;20218;-60
2023/11/24 03:25:11;;;;;;;1.67;1.00;;;8.10;99.90;;;;;;5050934;28;20397;-61
2023/11/24 03:27:38;;;;;;;1.27;1.00;;;8.10;99.90;;;;;;5050639;28;20711;-61
2023/11/24 03:30:06;;;;;;;2.38;1.30;;;8.00;99.90;;;;;;5050585;28;20230;-62
2023/11/24 03:32:34;;;;;;;1.35;1.00;;;8.00;99.90;;;;;;5033163;28;20207;-59
2023/11/24 03:35:01;;;;;;;2.20;0.90;;;7.90;99.90;;;;;;5051013;28;20214;-60
2023/11/24 03:37:28;;;;;;;2.10;1.42;;;7.90;99.90;;;;;;5050655;28;21004;-60
2023/11/24 03:39:55;;;;;;;1.70;1.45;;;7.90;99.90;;;;;;5050545;28;20236;-61
2023/11/24 03:42:21;;;;;;;3.28;1.48;;;7.90;99.90;;;;;;5050430;28;20300;-60
2023/11/24 03:44:48;;;;;;;1.65;1.52;;;7.90;99.90;;;;;;5050935;28;20839;-56
2023/11/24 03:47:15;;;;;;;1.02;1.00;;;7.80;99.90;;;;;;5050678;28;20642;-60
2023/11/24 03:49:43;;;;;;;1.92;1.52;;;7.80;99.90;;;;;;5050410;28;20262;-61
2023/11/24 03:52:10;;;;;;;1.73;1.10;;;7.80;99.90;;;;;;5050632;28;20233;-61
2023/11/24 03:54:37;;;;;;;1.15;1.10;;;7.80;99.90;;;;;;5050636;28;20206;-59
2023/11/24 03:57:05;;;;;;;1.77;1.02;;;7.80;99.90;;;;;;5050218;28;20585;-60
2023/11/24 03:59:31;;;;;;;3.28;1.02;;;7.80;99.90;;;;;;5050685;28;20206;-60
2023/11/24 04:01:58;;;;;;;1.17;1.10;;;7.80;99.90;;;;;;5053251;28;20645;-57
2023/11/24 04:04:25;;;;;;;1.27;0.98;;;7.80;99.90;;;;;;5054541;28;20581;-59
2023/11/24 04:06:53;;;;;;;1.20;0.80;;;7.70;99.90;;;;;;5054278;28;20202;-60
2023/11/24 04:09:20;;;;;;;1.73;1.00;;;7.70;99.90;;;;;;5054123;28;20233;-59
2023/11/24 04:11:47;;;;;;;1.17;1.05;;;7.70;99.90;;;;;;5053419;28;20216;-60
2023/11/24 04:14:14;;;;;;;0.70;0.70;;;7.70;99.90;;;;;;5054209;28;20210;-60
2023/11/24 04:16:42;;;;;;;0.98;0.90;;;7.60;99.90;;;;;;5053965;28;20302;-57
2023/11/24 04:19:11;;;;;;;4.32;0.90;;;7.60;99.90;;;;;;5054348;28;20212;-59
2023/11/24 04:21:39;;;;;;;1.00;0.85;;;7.60;99.90;;;;;;5054298;28;20344;-58
2023/11/24 04:24:08;;;;;;;1.67;1.08;;;7.60;99.90;;;;;;5054036;28;20264;-60
2023/11/24 04:26:35;;;;;;;1.50;1.40;;;7.60;99.90;;;;;;5053994;28;20289;-58
2023/11/24 04:29:03;;;;;;;1.25;0.85;;;7.60;99.90;;;;;;5054155;28;20218;-60
2023/11/24 04:31:30;;;;;;;2.65;1.45;;;7.60;99.90;;;;;;5054090;28;20218;-59
2023/11/24 04:33:57;;;;;;;1.95;1.40;;;7.50;99.90;;;;;;5053874;28;20690;-60
2023/11/24 04:36:24;;;;;;;6.28;1.75;;;7.50;99.90;;;;;;5053757;28;20204;-60
2023/11/24 04:38:51;;;;;;;2.60;2.28;;;7.50;99.90;;;;;;5053952;28;20704;-59
2023/11/24 04:41:19;;;;;;;5.80;3.42;;;7.50;99.90;;;;;;5053701;28;20253;-58
2023/11/24 04:43:46;;;;;;;2.92;2.00;;;7.50;99.90;;;;;;5054111;28;20206;-59
2023/11/24 04:46:13;;;;;;;3.40;1.90;;;7.50;99.90;;;;;;5053742;28;20214;-61
2023/11/24 04:48:39;;;;;;;7.50;3.08;;;7.50;99.90;;;;;;5053710;28;20210;-60
2023/11/24 04:51:06;;;;;;;4.88;2.65;;;7.50;99.90;;;;;;5053476;28;20226;-61
2023/11/24 04:53:33;;;;;;;2.10;1.70;;;7.50;99.90;;;;;;5053849;28;20206;-60
2023/11/24 04:56:00;;;;;;;4.45;1.52;;;7.40;99.90;;;;;;5053724;28;20202;-61
2023/11/24 04:58:30;;;;;;;5.28;1.73;;;7.40;99.90;;;;;;5053523;28;20219;-60
2023/11/24 05:00:57;;;;;;;3.28;1.90;;;7.40;99.90;;;;;;5053490;28;20252;-61
2023/11/24 05:03:24;;;;;;;4.13;1.80;;;7.40;99.90;;;;;;5053463;28;20309;-60
2023/11/24 05:05:50;;;;;;;2.05;1.60;;;7.30;99.90;;;;;;5053329;28;20300;-58
2023/11/24 05:08:17;;;;;;;6.65;2.45;;;7.30;99.90;;;;;;5053200;28;20212;-59
2023/11/24 05:10:44;;;;;;;2.50;2.30;;;7.20;99.90;;;;;;5053173;28;20230;-60
2023/11/24 05:13:11;;;;;;;11.45;2.50;;;7.20;99.90;;;;;;5052462;28;20293;-59
2023/11/24 05:15:39;;;;;;;3.10;1.92;;;7.10;99.90;;;;;;5053321;28;20631;-60
2023/11/24 05:18:07;;;;;;;4.72;1.95;;;7.10;99.90;;;;;;5052954;28;20763;-58
2023/11/24 05:20:34;;;;;;;3.20;1.75;;;7.00;99.90;;;;;;5053169;28;20325;-58
2023/11/24 05:23:01;;;;;;;1.38;1.38;;;7.00;99.90;;;;;;5053343;28;20293;-60
2023/11/24 05:25:28;;;;;;;5.25;2.80;;;7.00;99.90;;;;;;5052976;28;20305;-59
2023/11/24 05:27:55;;;;;;;5.35;2.00;;;6.90;99.90;;;;;;5052968;28;20222;-58
2023/11/24 05:30:22;;;;;;;4.93;2.55;;;6.90;99.90;;;;;;5053088;28;20607;-60
2023/11/24 05:32:50;;;;;;;4.93;2.13;;;6.90;99.90;;;;;;5052854;28;20752;-58
2023/11/24 05:35:16;;;;;;;7.20;2.58;;;6.90;99.90;;;;;;5053053;28;20213;-59
2023/11/24 05:37:44;;;;;;;6.57;2.90;;;6.90;99.90;;;;;;5053096;28;20876;-60
2023/11/24 05:40:12;;;;;;;3.35;2.28;;;6.90;99.90;;;;;;5052903;28;21037;-58
2023/11/24 05:42:39;;;;;;;6.25;2.92;;;6.80;99.90;;;;;;5053047;28;20210;-57
2023/11/24 05:45:07;;;;;;;5.15;2.65;;;6.80;99.90;;;;;;5053074;28;20241;-59
2023/11/24 05:47:35;;;;;;;3.95;1.95;;;6.80;99.90;;;;;;5052421;28;20214;-58
2023/11/24 05:50:05;;;;;;;13.50;2.55;;;6.80;99.90;;;;;;5052934;28;20226;-60
2023/11/24 05:52:32;;;;;;;3.30;2.08;;;6.70;99.90;;;;;;5052938;28;20218;-59
2023/11/24 05:55:00;;;;;;;4.38;2.78;;;6.70;99.90;;;;;;5052951;28;20248;-59
2023/11/24 05:57:27;;;;;;;4.43;1.67;;;6.70;99.90;;;;;;5052356;28;20637;-58
2023/11/24 05:59:54;;;;;;;7.78;1.92;;;6.60;99.90;;;;;;5052499;28;20238;-59
2023/11/24 06:02:21;;;;;;;3.22;2.38;;;6.60;99.90;;;;;;5052461;28;20301;-60
2023/11/24 06:04:48;;;;;;;4.57;2.20;;;6.60;99.90;;;;;;5052671;28;20229;-60
2023/11/24 06:07:17;;;;;;;3.80;2.30;;;6.50;99.90;;;;;;5052319;28;20670;-59
2023/11/24 06:09:44;;;;;;;4.97;2.28;;;6.50;99.90;;;;;;5052208;28;20317;-58
2023/11/24 06:12:11;;;;;;;3.78;2.13;;;6.40;99.90;;;;;;5052598;28;20313;-60
2023/11/24 06:14:38;;;;;;;1.63;1.52;;;6.40;99.90;;;;;;5052879;28;20297;-57
2023/11/24 06:17:06;;;;;;;4.63;1.92;;;6.30;99.90;;;;;;5052058;28;20202;-59
2023/11/24 06:19:33;;;;;;;5.65;2.65;;;6.30;99.90;;;;;;5052221;28;20688;-58
2023/11/24 06:22:00;;;;;;;3.13;2.03;;;6.20;99.90;;;;;;5051993;28;20301;-59
2023/11/24 06:24:28;;;;;;;4.00;3.08;;;6.20;99.90;;;;;;5052083;28;20297;-58
2023/11/24 06:26:55;;;;;;;4.50;2.03;;;6.20;99.90;;;;;;5051694;28;20571;-59
2023/11/24 06:29:22;;;;;;;3.08;2.60;;;6.20;99.90;;;;;;5052090;28;20209;-60
2023/11/24 06:31:48;;;;;;;5.72;2.65;;;6.20;99.90;;;;;;5051967;28;20321;-60
2023/11/24 06:34:17;;;;;;;5.85;2.60;;;6.20;99.90;;;;;;5052307;28;20634;-58
2023/11/24 06:36:45;;;;;;;7.43;3.05;;;6.20;99.90;;;;;;5051583;28;20297;-59
2023/11/24 06:39:12;;;;;;;6.63;2.78;;;6.20;99.90;;;;;;5051893;28;20306;-59
2023/11/24 06:41:41;;;;;;;4.45;3.10;;;6.20;99.90;;;;;;5051838;28;20297;-59
2023/11/24 06:44:08;;;;;;;9.43;3.78;;;6.30;99.90;;;;;;5051780;28;20297;-59
2023/11/24 06:46:36;;;;;;;4.80;2.75;;;6.20;99.90;;;;;;5051388;28;20204;-60
2023/11/24 06:49:05;;;;;;;6.65;2.75;;;6.30;99.90;;;;;;5051763;28;20923;-59
2023/11/24 06:51:32;;;;;;;7.25;2.38;;;6.30;99.90;;;;;;5051757;28;20674;-59
2023/11/24 06:53:58;;;;;;;5.00;2.58;;;6.30;99.90;;;;;;5051726;28;20206;-59
2023/11/24 06:56:29;;;;;;;3.20;2.80;;;6.30;99.90;;;;;;5051390;28;20616;-60
2023/11/24 06:58:57;;;;;;;5.13;2.53;;;6.30;99.90;;;;;;5051678;28;20698;-59
2023/11/24 07:01:31;;;;;;;2.28;1.27;;;6.30;99.90;;;;;;5051452;28;20577;-58
2023/11/24 07:03:59;;;;;;;4.00;1.85;;;6.30;99.90;;;;;;5051633;28;20205;-60
2023/11/24 07:06:26;;;;;;;3.63;1.95;;;6.40;99.90;;;;;;5051026;28;20559;-60
2023/11/24 07:08:53;;;;;;;4.93;2.13;;;6.40;99.90;;;;;;5051116;28;20210;-58
2023/11/24 07:11:20;;;;;;;9.65;2.70;;;6.40;99.90;;;;;;5051485;28;20237;-60
2023/11/24 07:13:47;;;;;;;2.88;2.30;;;6.40;99.90;;;;;;5051369;28;20202;-58
2023/11/24 07:16:16;;;;;;;3.85;2.08;;;6.40;99.90;;;;;;5051376;28;20214;-60
2023/11/24 07:18:43;;;;;;;2.35;1.95;;;6.40;99.90;;;;;;5051226;28;20210;-60
2023/11/24 07:21:10;;;;;;;2.25;1.55;;;6.40;99.90;;;;;;5051098;28;20221;-59
2023/11/24 07:23:37;;;;;;;4.60;2.60;;;6.40;99.90;;;;;;5051333;28;20896;-58
2023/11/24 07:26:05;;;;;;;2.53;1.65;;;6.50;99.90;;;;;;5051082;28;20217;-60
2023/11/24 07:28:31;;;;;;;6.40;1.95;;;6.40;99.90;;;;;;5050916;28;20244;-59
2023/11/24 07:30:58;;;;;;;3.85;3.55;;;6.40;99.90;;;;;;5050971;28;20248;-58
2023/11/24 07:33:27;;;;;;;4.20;2.38;;;6.40;99.90;;;;;;5051209;28;20301;-57
2023/11/24 07:35:54;;;;;;;2.08;1.95;;;6.50;99.90;;;;;;5050369;28;20213;-58
2023/11/24 07:38:24;;;;;;;6.35;2.78;;;6.50;99.90;;;;;;5049566;28;20207;-59
2023/11/24 07:40:51;;;;;;;6.28;3.42;;;6.50;99.90;;;;;;5050643;28;20770;-60
2023/11/24 07:43:18;;;;;;;6.57;3.17;;;6.50;99.90;;;;;;5051022;28;20198;-61
2023/11/24 07:45:50;;;;;;;7.35;4.05;;;6.50;99.90;;;;;;5050905;28;20297;-59
2023/11/24 07:48:17;;;;;;;6.07;2.65;;;6.50;99.90;;;;;;5049946;28;20726;-59
2023/11/24 07:50:45;;;;;;;4.07;2.50;;;6.50;99.90;;;;;;5050105;28;20303;-58
2023/11/24 07:53:14;;;;;;;3.75;1.85;;;6.50;99.90;;;;;;5050911;28;20649;-58
2023/11/24 07:55:41;;;;;;;5.68;2.22;;;6.50;99.90;;;;;;5050604;28;20238;-56
2023/11/24 07:58:08;;;;;;;3.70;2.78;;;6.50;99.90;;;;;;5050495;28;20214;-59
2023/11/24 08:00:35;;;;;;;5.25;2.65;;;6.50;99.90;;;;;;5050435;28;20674;-59
2023/11/24 08:03:03;;;;;;;5.50;2.90;;;6.50;99.90;;;;;;5050390;28;20210;-60
2023/11/24 08:05:30;;;;;;;2.50;2.10;;;6.60;99.90;;;;;;5050477;28;20677;-59
2023/11/24 08:07:58;;;;;;;5.45;2.80;;;6.60;99.90;;;;;;5050233;28;20804;-59
2023/11/24 08:10:25;;;;;;;4.35;2.85;;;6.60;99.90;;;;;;5050484;28;20222;-59
2023/11/24 08:12:51;;;;;;;7.15;2.92;;;6.60;99.90;;;;;;5050582;28;20276;-57
2023/11/24 08:15:19;;;;;;;4.10;3.70;;;6.70;99.90;;;;;;5050260;28;20677;-60
2023/11/24 08:17:46;;;;;;;6.22;3.40;;;6.70;99.90;;;;;;5050179;28;20210;-59
2023/11/24 08:20:13;;;;;;;10.82;3.45;;;6.70;99.90;;;;;;5050493;28;20321;-58
2023/11/24 08:22:40;;;;;;;7.65;3.00;;;6.80;99.90;;;;;;5050330;28;20260;-59
2023/11/24 08:25:10;;;;;;;7.97;2.80;;;6.80;99.90;;;;;;5050331;28;20201;-57
2023/11/24 08:27:37;;;;;;;7.07;3.00;;;6.80;99.90;;;;;;5050003;28;20664;-60
2023/11/24 08:30:10;;;;;;;4.25;2.30;;;6.80;99.90;;;;;;5050123;28;20229;-61
2023/11/24 08:32:37;;;;;;;3.70;2.20;;;6.80;99.90;;;;;;5050121;28;20246;-59
2023/11/24 08:35:05;;;;;;;5.03;3.00;;;6.80;99.90;;;;;;5048418;28;20585;-57
2023/11/24 08:37:32;;;;;;;14.07;2.88;;;6.80;99.90;;;;;;5048901;28;20206;-60
2023/11/24 08:39:59;;;;;;;7.10;3.20;;;6.80;99.90;;;;;;5048532;28;20238;-60
2023/11/24 08:42:30;;;;;;;10.07;3.95;;;6.80;99.90;;;;;;5048941;28;20199;-58
2023/11/24 08:44:57;;;;;;;6.57;3.03;;;6.80;99.90;;;;;;5042598;28;20210;-60
2023/11/24 08:47:25;;;;;;;5.28;3.20;;;6.80;99.90;;;;;;5053847;28;20202;-58
2023/11/24 08:49:52;;;;;;;10.55;2.85;;;6.80;99.90;;;;;;5053280;28;20579;-60
2023/11/24 08:52:20;;;;;;;3.30;2.60;;;6.80;99.90;;;;;;5052696;28;20317;-59
2023/11/24 08:54:47;;;;;;;3.35;1.90;;;7.00;99.90;;;;;;5053676;28;20293;-60
2023/11/24 08:57:13;;;;;;;9.88;2.85;;;7.00;99.90;;;;;;5052273;28;20198;-60
2023/11/24 08:59:42;;;;;;;4.55;2.33;;;7.20;99.90;;;;;;5053494;28;20229;-59
2023/11/24 09:02:08;;;;;;;5.50;2.00;;;7.20;99.90;;;;;;5053285;28;20205;-60
2023/11/24 09:04:35;;;;;;;11.63;4.78;;;7.20;99.90;;;;;;5053016;28;20293;-60
2023/11/24 09:07:03;;;;;;;7.03;3.30;;;7.30;99.90;;;;;;5052453;28;20198;-60
2023/11/24 09:09:30;;;;;;;4.80;2.30;;;7.40;99.90;;;;;;5053052;28;20199;-60
2023/11/24 09:11:56;;;;;;;3.70;2.75;;;7.50;99.90;;;;;;5055389;28;20226;-61
2023/11/24 09:14:23;;;;;;;5.45;3.00;;;7.60;99.90;;;;;;5053039;28;20581;-61
2023/11/24 09:16:52;;;;;;;3.88;2.00;;;7.70;99.90;;;;;;5051981;28;20206;-57
2023/11/24 09:19:18;;;;;;;3.90;2.72;;;7.70;99.90;;;;;;5064279;28;20226;-61
2023/11/24 09:21:48;;;;;;;5.45;3.20;;;7.80;99.90;;;;;;5052546;28;20209;-60
2023/11/24 09:24:15;;;;;;;6.90;2.50;;;7.80;99.90;;;;;;5055786;28;20252;-57
2023/11/24 09:26:43;;;;;;;1.15;0.80;;;7.80;99.90;;;;;;5051940;28;20680;-58
2023/11/24 09:29:11;;;;;;;2.58;1.38;;;7.60;99.90;;;;;;5052535;28;20207;-58
2023/11/24 09:31:38;;;;;;;4.00;1.35;;;7.50;99.90;;;;;;5051981;28;20229;-60
2023/11/24 09:34:07;;;;;;;0.82;0.82;;;7.30;99.90;;;;;;5052880;28;21277;-59
2023/11/24 09:36:34;;;;;;;1.50;1.15;;;7.20;99.90;;;;;;5051500;28;20234;-60
2023/11/24 09:39:01;;;;;;;1.88;1.20;;;7.20;99.90;;;;;;5052891;28;20210;-59
2023/11/24 09:41:29;;;;;;;4.60;1.75;;;7.10;99.90;;;;;;5052244;28;20241;-59
2023/11/24 09:43:59;;;;;;;3.03;1.80;;;7.10;99.90;;;;;;5047522;28;20245;-59
2023/11/24 09:46:27;;;;;;;2.72;1.60;;;7.10;99.90;;;;;;5051629;28;20226;-59
2023/11/24 09:48:55;;;;;;;6.75;2.00;;;7.10;99.90;;;;;;5044577;28;20209;-61
2023/11/24 09:51:26;;;;;;;8.18;3.35;;;7.20;99.90;;;;;;5052612;28;20325;-59
2023/11/24 09:53:55;;;;;;;6.32;2.63;;;7.20;99.90;;;;;;5052674;28;20673;-60
2023/11/24 09:56:23;;;;;;;9.38;4.35;;;7.30;99.90;;;;;;5052279;28;20206;-60
2023/11/24 09:58:50;;;;;;;13.43;6.07;;;7.40;99.90;;;;;;5052351;28;20214;-60
2023/11/24 10:01:18;;;;;;;2.45;2.20;;;7.50;99.90;;;;;;5052700;28;20716;-60
2023/11/24 10:03:48;;;;;;;6.97;1.95;;;7.60;99.90;;;;;;5052276;28;20588;-59
2023/11/24 10:06:15;;;;;;;2.03;1.92;;;7.60;99.90;;;;;;5052627;28;20202;-58
2023/11/24 10:08:45;;;;;;;9.60;2.70;;;7.80;99.90;;;;;;5052452;28;20693;-60
2023/11/24 10:11:13;;;;;;;4.00;1.90;;;7.90;99.90;;;;;;5052473;28;20226;-60
2023/11/24 10:13:41;;;;;;;3.67;1.70;;;8.00;99.90;;;;;;5052240;28;20301;-59
2023/11/24 10:16:10;;;;;;;3.50;2.10;;;8.00;99.90;;;;;;5052672;28;20206;-61
2023/11/24 10:18:38;;;;;;;4.13;1.60;;;8.00;99.90;;;;;;5053177;28;20268;-61
2023/11/24 10:21:06;;;;;;;3.20;1.83;;;8.00;99.90;;;;;;5052512;28;20226;-61
2023/11/24 10:23:33;;;;;;;5.00;1.90;;;8.00;99.90;;;;;;5052628;28;20298;-61
2023/11/24 10:26:01;;;;;;;7.28;1.80;;;8.00;99.90;;;;;;5052866;28;20681;-60
2023/11/24 10:28:28;;;;;;;6.30;2.65;;;8.00;99.90;;;;;;5052438;28;20216;-59
2023/11/24 10:30:57;;;;;;;7.22;1.63;;;8.10;99.90;;;;;;5052256;28;20313;-61
2023/11/24 10:33:25;;;;;;;3.20;2.63;;;8.10;99.90;;;;;;5052821;28;20203;-61
2023/11/24 10:35:53;;;;;;;5.10;1.52;;;8.30;99.90;;;;;;5052391;28;20285;-60
2023/11/24 10:38:21;;;;;;;2.58;1.40;;;8.50;99.90;;;;;;5051662;28;20756;-61
2023/11/24 10:40:50;;;;;;;5.90;2.07;;;8.70;99.90;;;;;;5051886;28;20266;-61
2023/11/24 10:43:20;;;;;;;2.38;1.60;;;8.90;99.90;;;;;;5051529;28;20460;-62
2023/11/24 10:45:51;;;;;;;4.20;2.10;;;9.10;99.90;;;;;;5051343;28;20202;-62
2023/11/24 10:48:22;;;;;;;6.67;2.13;;;9.30;99.90;;;;;;5050410;28;20445;-62
2023/11/24 10:50:57;;;;;;;3.97;1.60;;;9.40;99.90;;;;;;5051486;28;20465;-62
2023/11/24 10:53:27;;;;;;;2.50;1.83;;;9.40;99.90;;;;;;5050948;28;20445;-62
2023/11/24 10:55:55;;;;;;;4.73;2.33;;;9.30;99.90;;;;;;5050248;28;20445;-61
2023/11/24 10:58:24;;;;;;;5.63;2.30;;;9.10;99.90;;;;;;5051248;28;20437;-62
2023/11/24 11:00:51;;;;;;;3.83;2.47;;;9.00;99.90;;;;;;5050423;28;20272;-62
2023/11/24 11:03:18;;;;;;;5.13;1.30;;;8.80;99.90;;;;;;5050634;28;20213;-62
2023/11/24 11:06:04;;;;;;;2.75;1.77;;;8.60;99.90;;;;;;5050686;28;20460;-61
2023/11/24 11:08:35;;;;;;;3.30;1.70;;;8.40;99.90;;;;;;5050166;28;20216;-62
2023/11/24 11:11:25;;;;;;;4.15;1.63;;;8.20;99.90;;;;;;5048411;28;20214;-61
2023/11/24 11:13:56;;;;;;;2.90;1.15;;;8.10;99.90;;;;;;5034461;28;20592;-62
2023/11/24 11:16:24;;;;;;;1.15;1.10;;;8.00;99.90;;;;;;5049950;28;20198;-62
2023/11/24 11:18:50;;;;;;;1.00;1.00;;;7.90;99.90;;;;;;5050254;28;20296;-61
2023/11/24 11:21:37;;;;;;;1.00;1.00;;;7.80;99.90;;;;;;5050156;28;20301;-61
2023/11/24 11:24:04;;;;;;;2.08;0.93;;;7.60;99.90;;;;;;5043300;28;20688;-62
2023/11/24 11:26:57;;;;;;;2.13;1.10;;;7.50;99.90;;;;;;5039253;28;20582;-62
2023/11/24 11:29:27;;;;;;;2.58;1.10;;;7.40;99.90;;;;;;5034009;28;20217;-62
2023/11/24 11:31:55;;;;;;;1.52;1.25;;;7.30;99.90;;;;;;5049960;28;20603;-62
2023/11/24 11:34:29;;;;;;;7.07;2.10;;;7.20;99.90;;;;;;5049908;28;20222;-62
2023/11/24 11:37:09;;;;;;;4.85;1.80;;;7.10;99.90;;;;;;5049616;28;20290;-62
2023/11/24 11:39:38;;;;;;;1.88;1.58;;;7.00;99.90;;;;;;5049354;28;20408;-63
2023/11/24 11:42:09;;;;;;;1.20;1.10;;;7.00;99.90;;;;;;5049999;28;20640;-62
2023/11/24 11:44:39;;;;;;;1.85;1.70;;;6.90;99.90;;;;;;5049816;28;20325;-63
2023/11/24 11:47:15;;;;;;;2.03;1.85;;;6.90;99.90;;;;;;5049632;28;20198;-62
2023/11/24 11:49:42;;;;;;;1.63;1.50;;;6.80;99.90;;;;;;5049424;28;20224;-62
2023/11/24 11:52:11;;;;;;;1.50;1.40;;;6.80;99.90;;;;;;5049613;28;20309;-62
2023/11/24 11:54:39;;;;;;;3.13;1.45;;;6.80;99.90;;;;;;5049686;28;20324;-62
2023/11/24 11:57:07;;;;;;;1.25;1.15;;;6.90;99.90;;;;;;5049092;28;20772;-62
2023/11/24 11:59:34;;;;;;;1.80;1.15;;;7.00;99.90;;;;;;5049325;28;20220;-62
2023/11/24 12:02:04;;;;;;;5.78;0.85;;;7.20;99.90;;;;;;5049533;28;20286;-62
2023/11/24 12:04:32;;;;;;;1.10;0.80;;;7.30;99.90;;;;;;5049208;28;20688;-62
2023/11/24 12:07:00;;;;;;;1.00;1.00;;;7.40;99.90;;;;;;5049344;28;20676;-62
2023/11/24 12:09:28;;;;;;;1.23;1.13;;;7.30;99.90;;;;;;5049483;28;20206;-62
2023/11/24 12:11:55;;;;;;;1.70;1.60;;;7.30;99.90;;;;;;5049775;28;20301;-61
2023/11/24 12:14:22;;;;;;;1.45;1.00;;;7.30;99.90;;;;;;5049417;28;20766;-62
2023/11/24 12:16:50;;;;;;;1.40;1.10;;;7.20;99.90;;;;;;5049184;28;20622;-62
2023/11/24 12:19:18;;;;;;;2.05;1.40;;;7.10;99.90;;;;;;5048133;28;20637;-61
2023/11/24 12:21:47;;;;;;;1.05;0.95;;;7.10;99.90;;;;;;5047144;28;20206;-59
2023/11/24 12:24:15;;;;;;;1.20;1.10;;;7.10;99.90;;;;;;5052899;28;20204;-60
2023/11/24 12:26:44;;;;;;;1.15;1.15;;;7.00;99.90;;;;;;5052337;28;20297;-62
2023/11/24 12:29:13;;;;;;;2.80;1.45;;;7.00;99.90;;;;;;5052638;28;20256;-62
2023/11/24 12:31:41;;;;;;;2.78;2.15;;;7.00;99.90;;;;;;5052472;28;20226;-62
2023/11/24 12:34:20;;;;;;;1.95;1.10;;;7.00;99.90;;;;;;5052426;28;20570;-62
2023/11/24 12:36:47;;;;;;;1.67;1.58;;;7.10;99.90;;;;;;5052772;28;20206;-62
2023/11/24 12:39:15;;;;;;;1.50;1.33;;;7.10;99.90;;;;;;5052941;28;20206;-61
2023/11/24 12:41:46;;;;;;;3.47;1.40;;;7.00;99.90;;;;;;5052983;28;20567;-61
2023/11/24 12:44:14;;;;;;;3.78;1.83;;;7.00;99.90;;;;;;5053468;28;20241;-62
2023/11/24 12:46:41;;;;;;;1.75;1.42;;;7.00;99.90;;;;;;5052664;28;20645;-62
2023/11/24 12:49:09;;;;;;;1.10;1.10;;;6.90;99.90;;;;;;5053231;28;20257;-62
2023/11/24 12:51:41;;;;;;;0.93;0.85;;;6.90;99.90;;;;;;5052687;28;20305;-62
2023/11/24 12:54:08;;;;;;;1.02;1.02;;;7.00;99.90;;;;;;5052927;28;20199;-61
2023/11/24 12:56:35;;;;;;;1.77;1.20;;;7.10;99.90;;;;;;5052226;28;20199;-62
2023/11/24 12:59:03;;;;;;;3.10;0.90;;;7.40;99.90;;;;;;5052588;28;20206;-62
2023/11/24 13:01:32;;;;;;;2.08;1.60;;;7.60;99.90;;;;;;5052708;28;20227;-62